createdAt,value
2022-08-26T00:02:46.268Z,25.10
2022-08-26T00:06:50.458Z,25.00
2022-08-26T00:10:53.440Z,25.00
2022-08-26T00:14:56.366Z,24.90
2022-08-26T00:19:00.220Z,24.90
2022-08-26T00:23:04.526Z,24.90
2022-08-26T00:27:08.388Z,24.80
2022-08-26T00:31:12.822Z,24.70
2022-08-26T00:39:21.100Z,24.70
2022-08-26T00:43:24.423Z,24.60
2022-08-26T00:47:31.064Z,24.60
2022-08-26T00:51:37.333Z,24.50
2022-08-26T00:55:42.211Z,24.50
2022-08-26T00:59:46.496Z,24.40
2022-08-26T01:03:50.605Z,24.40
2022-08-26T01:07:53.464Z,24.30
2022-08-26T01:11:58.459Z,24.30
2022-08-26T01:16:03.699Z,24.20
2022-08-26T01:20:11.494Z,24.10
2022-08-26T01:24:17.931Z,24.00
2022-08-26T01:28:23.219Z,24.00
2022-08-26T01:32:26.992Z,23.90
2022-08-26T01:36:30.379Z,23.80
2022-08-26T01:40:37.274Z,23.80
2022-08-26T01:44:42.518Z,23.70
2022-08-26T01:48:48.119Z,23.60
2022-08-26T01:52:56.245Z,23.60
2022-08-26T01:57:00.760Z,23.50
2022-08-26T02:01:05.359Z,23.40
2022-08-26T02:05:10.545Z,23.40
2022-08-26T02:09:13.715Z,23.30
2022-08-26T02:13:19.352Z,23.30
2022-08-26T02:17:24.519Z,23.20
2022-08-26T02:21:27.488Z,23.20
2022-08-26T02:25:32.439Z,23.10
2022-08-26T02:29:38.330Z,23.10
2022-08-26T02:33:43.141Z,23.00
2022-08-26T02:37:46.213Z,23.00
2022-08-26T02:41:52.200Z,22.90
2022-08-26T02:45:56.441Z,22.90
2022-08-26T02:49:59.303Z,22.80
2022-08-26T02:54:02.168Z,22.80
2022-08-26T02:58:05.525Z,22.70
2022-08-26T03:02:11.026Z,22.70
2022-08-26T03:06:13.922Z,22.60
2022-08-26T03:10:16.804Z,22.60
2022-08-26T03:14:19.745Z,22.60
2022-08-26T03:18:24.990Z,22.50
2022-08-26T03:22:27.943Z,22.40
2022-08-26T03:26:31.083Z,22.40
2022-08-26T03:30:44.780Z,22.40
2022-08-26T03:34:49.740Z,22.30
2022-08-26T03:38:52.587Z,22.30
2022-08-26T03:42:55.436Z,22.30
2022-08-26T03:46:58.288Z,22.20
2022-08-26T03:51:03.220Z,22.10
2022-08-26T03:55:06.829Z,22.10
2022-08-26T03:59:09.707Z,22.10
2022-08-26T04:03:18.151Z,22.00
2022-08-26T04:07:25.213Z,22.00
2022-08-26T04:11:30.438Z,22.00
2022-08-26T04:15:37.176Z,22.00
2022-08-26T04:19:40.873Z,22.00
2022-08-26T04:23:47.333Z,21.90
2022-08-26T04:27:50.885Z,21.90
2022-08-26T04:31:55.895Z,21.90
2022-08-26T04:36:02.291Z,21.80
2022-08-26T04:40:10.066Z,21.80
2022-08-26T04:44:13.014Z,21.80
2022-08-26T04:48:16.925Z,21.70
2022-08-26T04:52:21.124Z,21.70
2022-08-26T04:56:26.345Z,21.60
2022-08-26T05:00:29.206Z,21.60
2022-08-26T05:04:32.218Z,21.60
2022-08-26T05:08:35.074Z,21.60
2022-08-26T05:12:39.590Z,21.50
2022-08-26T05:16:43.499Z,21.50
2022-08-26T05:20:54.600Z,21.50
2022-08-26T05:24:57.797Z,21.50
2022-08-26T05:29:02.068Z,21.50
2022-08-26T05:33:05.331Z,21.50
2022-08-26T05:37:08.216Z,21.50
2022-08-26T05:41:16.587Z,21.50
2022-08-26T05:45:24.212Z,21.60
2022-08-26T05:49:27.045Z,21.60
2022-08-26T05:53:30.042Z,21.70
2022-08-26T05:57:35.372Z,21.80
2022-08-26T06:01:42.180Z,21.90
2022-08-26T06:05:45.068Z,22.00
2022-08-26T06:09:47.997Z,22.10
2022-08-26T06:13:51.335Z,22.20
2022-08-26T06:17:55.532Z,22.30
2022-08-26T06:22:21.899Z,22.40
2022-08-26T06:26:26.669Z,22.60
2022-08-26T06:30:29.472Z,22.70
2022-08-26T06:34:34.236Z,22.80
2022-08-26T06:38:37.231Z,22.90
2022-08-26T06:42:40.181Z,23.10
2022-08-26T06:46:44.341Z,23.20
2022-08-26T06:50:49.950Z,23.40
2022-08-26T06:54:53.072Z,23.50
2022-08-26T06:58:56.314Z,23.70
2022-08-26T07:02:59.133Z,23.90
2022-08-26T07:07:03.353Z,24.00
2022-08-26T07:11:06.958Z,24.20
2022-08-26T07:15:11.528Z,24.40
2022-08-26T07:19:15.573Z,24.50
2022-08-26T07:23:21.103Z,24.70
2022-08-26T07:27:25.334Z,24.90
2022-08-26T07:31:29.495Z,25.00
2022-08-26T07:35:33.000Z,25.20
2022-08-26T07:39:37.703Z,25.40
2022-08-26T07:43:43.795Z,25.70
2022-08-26T07:47:47.309Z,25.90
2022-08-26T07:51:50.354Z,26.20
2022-08-26T07:55:54.705Z,26.40
2022-08-26T08:04:00.694Z,26.90
2022-08-26T08:08:26.522Z,27.10
2022-08-26T08:12:30.657Z,27.30
2022-08-26T08:16:33.665Z,27.40
2022-08-26T08:20:37.626Z,27.70
2022-08-26T08:24:40.828Z,27.90
2022-08-26T08:28:46.279Z,28.00
2022-08-26T08:32:51.344Z,28.30
2022-08-26T08:36:54.440Z,28.50
2022-08-26T08:40:57.307Z,28.80
2022-08-26T08:45:04.945Z,28.80
2022-08-26T08:49:08.002Z,29.00
2022-08-26T08:53:12.941Z,29.20
2022-08-26T08:57:19.142Z,29.30
2022-08-26T09:01:37.246Z,29.60
2022-08-26T09:05:48.494Z,29.80
2022-08-26T09:09:53.669Z,29.90
2022-08-26T09:13:57.723Z,30.00
2022-08-26T09:18:06.638Z,30.20
2022-08-26T09:22:09.932Z,30.30
2022-08-26T09:26:17.911Z,30.40
2022-08-26T09:30:24.875Z,30.60
2022-08-26T09:34:29.380Z,31.00
2022-08-26T09:38:34.292Z,31.00
2022-08-26T09:42:37.140Z,31.30
2022-08-26T09:46:41.592Z,31.60
2022-08-26T09:50:54.269Z,31.60
2022-08-26T09:55:06.756Z,31.90
2022-08-26T09:59:10.896Z,32.10
2022-08-26T10:03:24.513Z,32.30
2022-08-26T10:07:37.232Z,32.50
2022-08-26T10:11:42.084Z,32.80
2022-08-26T10:15:50.506Z,33.30
2022-08-26T10:19:57.603Z,33.40
2022-08-26T10:24:03.578Z,33.40
2022-08-26T10:28:09.480Z,33.60
2022-08-26T10:32:15.039Z,33.80
2022-08-26T10:36:39.275Z,33.90
2022-08-26T10:40:55.252Z,34.10
2022-08-26T10:45:02.367Z,34.20
2022-08-26T10:49:07.676Z,34.20
2022-08-26T10:53:15.143Z,34.20
2022-08-26T10:57:24.655Z,34.20
2022-08-26T11:06:21.169Z,34.40
2022-08-26T11:10:43.112Z,34.40
2022-08-26T11:14:53.725Z,34.40
2022-08-26T11:19:01.908Z,34.40
2022-08-26T11:23:27.229Z,34.50
2022-08-26T11:28:04.300Z,34.70
2022-08-26T11:32:24.919Z,34.90
2022-08-26T11:36:37.604Z,34.90
2022-08-26T11:40:40.629Z,34.80
2022-08-26T11:44:49.313Z,34.70
2022-08-26T11:49:00.785Z,34.60
2022-08-26T11:53:06.416Z,34.50
2022-08-26T11:57:13.615Z,34.50
2022-08-26T12:01:26.876Z,34.70
2022-08-26T12:05:36.402Z,34.80
2022-08-26T12:09:52.167Z,34.70
2022-08-26T12:13:56.246Z,34.60
2022-08-26T12:18:16.982Z,34.40
2022-08-26T12:22:23.358Z,34.20
2022-08-26T12:26:29.155Z,34.00
2022-08-26T12:30:32.217Z,33.60
2022-08-26T12:34:35.421Z,33.30
2022-08-26T12:38:40.835Z,32.90
2022-08-26T12:42:43.655Z,32.40
2022-08-26T12:46:49.693Z,32.10
2022-08-26T12:50:53.272Z,31.70
2022-08-26T12:55:00.499Z,31.20
2022-08-26T12:59:05.381Z,30.70
2022-08-26T13:03:23.123Z,30.10
2022-08-26T13:07:27.937Z,29.50
2022-08-26T13:11:33.429Z,28.90
2022-08-26T13:15:36.459Z,28.30
2022-08-26T13:19:40.083Z,27.70
2022-08-26T13:23:42.899Z,27.20
2022-08-26T13:27:48.183Z,26.70
2022-08-26T13:31:51.439Z,26.30
2022-08-26T13:35:54.872Z,25.80
2022-08-26T13:39:58.307Z,25.50
2022-08-26T13:44:02.527Z,25.20
2022-08-26T13:48:05.954Z,25.00
2022-08-26T13:52:08.803Z,24.90
2022-08-26T13:56:11.648Z,24.80
2022-08-26T14:00:16.850Z,24.80
2022-08-26T14:04:23.253Z,24.80
2022-08-26T14:08:30.804Z,24.90
2022-08-26T14:12:33.646Z,25.10
2022-08-26T14:16:51.252Z,25.30
2022-08-26T14:21:02.912Z,25.50
2022-08-26T14:25:06.360Z,25.70
2022-08-26T14:29:10.590Z,25.90
2022-08-26T14:33:16.736Z,26.00
2022-08-26T14:37:19.677Z,26.20
2022-08-26T14:41:24.546Z,26.30
2022-08-26T14:45:28.287Z,26.30
2022-08-26T14:49:32.591Z,26.30
2022-08-26T14:53:52.751Z,26.30
2022-08-26T14:57:55.655Z,26.10
2022-08-26T15:01:58.700Z,26.00
2022-08-26T15:06:03.032Z,25.80
2022-08-26T15:10:07.047Z,25.60
2022-08-26T15:14:19.058Z,25.50
2022-08-26T15:18:23.477Z,25.40
2022-08-26T15:22:29.454Z,25.30
2022-08-26T15:26:33.587Z,25.30
2022-08-26T15:30:36.559Z,25.20
2022-08-26T15:34:39.536Z,25.20
2022-08-26T15:38:43.744Z,25.10
2022-08-26T15:42:46.676Z,25.00
2022-08-26T15:46:58.798Z,24.90
2022-08-26T15:51:02.513Z,24.70
2022-08-26T15:55:08.775Z,24.60
2022-08-26T15:59:12.046Z,24.60
2022-08-26T16:03:14.983Z,24.50
2022-08-26T16:07:18.023Z,24.40
2022-08-26T16:11:22.568Z,24.30
2022-08-26T16:15:25.411Z,24.20
2022-08-26T16:19:28.257Z,24.10
2022-08-26T16:23:31.116Z,24.00
2022-08-26T16:27:35.543Z,23.90
2022-08-26T16:31:38.784Z,23.80
2022-08-26T16:35:42.011Z,23.70
2022-08-26T16:39:45.221Z,23.60
2022-08-26T16:43:49.687Z,23.50
2022-08-26T16:47:52.619Z,23.50
2022-08-26T16:51:55.423Z,23.40
2022-08-26T16:55:58.453Z,23.30
2022-08-26T17:00:03.397Z,23.30
2022-08-26T17:04:07.258Z,23.20
2022-08-26T17:08:10.277Z,23.20
2022-08-26T17:12:13.341Z,23.10
2022-08-26T17:16:17.617Z,23.00
2022-08-26T17:20:20.988Z,23.00
2022-08-26T17:24:23.829Z,23.00
2022-08-26T17:28:26.745Z,23.00
2022-08-26T17:32:31.075Z,22.90
2022-08-26T17:36:34.054Z,22.90
2022-08-26T17:40:37.065Z,22.90
2022-08-26T17:44:40.484Z,23.00
2022-08-26T17:48:45.680Z,23.00
2022-08-26T17:52:48.686Z,23.00
2022-08-26T17:56:51.620Z,23.10
2022-08-26T18:00:54.775Z,23.10
2022-08-26T18:04:59.809Z,23.00
2022-08-26T18:09:03.876Z,23.00
2022-08-26T18:13:06.785Z,23.00
2022-08-26T18:17:09.707Z,22.90
2022-08-26T18:21:15.598Z,22.90
2022-08-26T18:25:19.053Z,22.90
2022-08-26T18:29:22.150Z,22.90
2022-08-26T18:33:25.055Z,23.00
2022-08-26T18:37:31.433Z,23.00
2022-08-26T18:41:35.485Z,23.00
2022-08-26T18:45:38.937Z,23.00
2022-08-26T18:49:41.760Z,23.00
2022-08-26T18:53:46.009Z,23.00
2022-08-26T18:57:49.513Z,23.00
2022-08-26T19:01:52.987Z,23.10
2022-08-26T19:05:55.898Z,23.10
2022-08-26T19:10:00.560Z,23.10
2022-08-26T19:14:06.662Z,23.10
2022-08-26T19:18:10.859Z,23.10
2022-08-26T19:22:13.847Z,23.10
2022-08-26T19:26:18.469Z,23.10
2022-08-26T19:30:21.397Z,23.10
2022-08-26T19:34:24.336Z,23.10
2022-08-26T19:38:27.826Z,23.10
2022-08-26T19:42:32.083Z,23.00
2022-08-26T19:46:35.904Z,22.90
2022-08-26T19:50:39.289Z,22.90
2022-08-26T19:54:42.197Z,22.90
2022-08-26T19:58:47.416Z,22.80
2022-08-26T20:02:51.239Z,22.80
2022-08-26T20:06:57.597Z,22.70
2022-08-26T20:11:02.168Z,22.60
2022-08-26T20:15:07.315Z,22.50
2022-08-26T20:19:27.653Z,22.50
2022-08-26T20:23:30.451Z,22.40
2022-08-26T20:27:37.964Z,22.30
2022-08-26T20:31:44.112Z,22.20
2022-08-26T20:35:47.073Z,22.20
2022-08-26T20:39:50.067Z,22.20
2022-08-26T20:43:53.070Z,22.10
2022-08-26T20:47:57.250Z,22.10
2022-08-26T20:52:00.503Z,22.10
2022-08-26T20:56:04.728Z,22.00
2022-08-26T21:00:08.170Z,22.00
2022-08-26T21:04:13.910Z,21.90
2022-08-26T21:08:16.707Z,21.90
2022-08-26T21:12:19.928Z,21.90
2022-08-26T21:16:22.822Z,21.90
2022-08-26T21:20:27.028Z,21.80
2022-08-26T21:24:29.818Z,21.80
2022-08-26T21:28:32.690Z,21.80
2022-08-26T21:32:35.568Z,21.80
2022-08-26T21:36:39.905Z,21.70
2022-08-26T21:40:42.795Z,21.70
2022-08-26T21:44:50.840Z,21.70
2022-08-26T21:48:56.955Z,21.70
2022-08-26T21:53:01.147Z,21.70
2022-08-26T21:57:03.942Z,21.60
2022-08-26T22:01:09.807Z,21.60
2022-08-26T22:05:12.725Z,21.60
2022-08-26T22:09:18.110Z,21.60
2022-08-26T22:13:21.463Z,21.60
2022-08-26T22:17:24.464Z,21.50
2022-08-26T22:21:28.032Z,21.50
2022-08-26T22:25:32.341Z,21.40
2022-08-26T22:29:35.240Z,21.40
2022-08-26T22:33:38.188Z,21.40
2022-08-26T22:37:41.072Z,21.40
2022-08-26T22:41:48.745Z,21.30
2022-08-26T22:45:52.951Z,21.30
2022-08-26T22:49:55.958Z,21.30
2022-08-26T22:53:58.861Z,21.20
2022-08-26T22:58:03.100Z,21.20
2022-08-26T23:02:06.068Z,21.20
2022-08-26T23:06:11.403Z,21.10
2022-08-26T23:10:14.408Z,21.10
2022-08-26T23:14:19.240Z,21.10
2022-08-26T23:18:22.097Z,21.10
2022-08-26T23:22:25.059Z,21.10
2022-08-26T23:26:27.916Z,21.00
2022-08-26T23:30:34.967Z,21.00
2022-08-26T23:35:00.827Z,21.00
2022-08-26T23:39:03.928Z,21.00
2022-08-26T23:43:08.785Z,21.00
2022-08-26T23:47:13.808Z,20.90
2022-08-26T23:51:34.631Z,20.90
2022-08-26T23:55:38.128Z,20.90
2022-08-26T23:59:41.011Z,20.90
